Peachtree City, GA

6:58 AM EST on January 23, 2017 (GMT -0500)
Village on the Green | | Change Station
Active Advisory: Wind Advisory Active Notice: Public Information Statement

Elev 863 ft 33.37 °N, 84.54 °W | Updated 35 seconds ago

Overcast
Overcast
48.9 °F
Feels Like 49 °F
N
2.0
Wind Variable Wind from SW

Today
High -- | Low -- °F
--% Chance of Precip.
Yesterday
High -- | Low -- °F
Precip. -- in
Pressure 29.29 in
Visibility 10.0 miles
Clouds Overcast 1500 ft
Windchill 49 °F
Dew Point 47 °F
Humidity 93%
Rainfall 0.05 in
Snow Depth Not available.
7:39 AM 6:01 PM
Waning Crescent, 19% visible
METAR KFFC 231153Z AUTO 31011KT 10SM OVC015 10/08 A2929 RMK AO2 SLP917 60015 70022 T01000083 10100 20089 53037
Pressure 29.29 in
Visibility 10.0 miles
Clouds Overcast 1500 ft
Windchill 49 °F
Dew Point 47 °F
Humidity 93%
Rainfall 0.05 in
Snow Depth Not available.
7:39 AM 6:01 PM
Waning Crescent, 19% visible
METAR KFFC 231153Z AUTO 31011KT 10SM OVC015 10/08 A2929 RMK AO2 SLP917 60015 70022 T01000083 10100 20089 53037

Get Your Daily Forecast Email!

Thanks for signing up!

Be on the lookout for a verification email in your inbox.

You'll start receiving the daily forecast at 8 AM.

×

10-Day Weather Forecast

Almanac

Astronomy

Jan. 23, 2017 Rise Set
Actual Time
Civil Twilight
Nautical Twilight
Astronomical Twilight
Moon
Length of Visible Light
Length of Day
Tomorrow will be .
, % of the Moon is Illuminated

Today's Extremes

State Highs State Lows

Community

WunderPhotos

Upload Photos

1,962,540 photos uploaded!

WunderBlog® & News

Nearby

Air Quality

  Air Quality AQ Index Pollutant
Not available.

Snow Depth

Station Depth Elevation

Earthquake Activity

City Distance Mag. Time & Date
Minimum magnitude displayed is 2.5.

Coastal Water Temperatures

Place Temperature

Stations

Nearby Weather Stations

Station Location Temp. Windchill Dew Point Humidity Wind Precip. Elev Updated Type
                   

Watches & Warnings

Wind Advisory
Issued: 3:10 AM EST Jan. 23, 2017 – National Weather Service

... Wind Advisory remains in effect until 7 PM EST this evening...

* locations... north and central Georgia

* winds... 20 to 30 mph with gusts to 40 mph. Winds will be
southwest this morning... shifting to the northwest by afternoon.

* Timing... through the day today until early evening. Winds may
remain gusty into tonight... particularly in the higher terrain.


* Impacts... these winds may break tree branches and down weaker
trees... particularly those in saturated soils due to recent
heavy rainfall. Unsecured outdoor items may be blown around.

Precautionary/preparedness actions...

A Wind Advisory means that winds of at least 20 mph or wind gusts
of at least 35 mph mph are expected. Winds this strong can make
driving difficult... especially for high profile vehicles. Use
extra caution.